createdAt,value
2022-07-30T00:03:35.057Z,55.09
2022-07-30T00:08:37.883Z,55.37
2022-07-30T00:13:40.844Z,55.69
2022-07-30T00:18:43.877Z,55.44
2022-07-30T00:24:01.237Z,55.62
2022-07-30T00:29:06.169Z,55.40
2022-07-30T00:34:09.069Z,55.75
2022-07-30T00:39:11.935Z,55.73
2022-07-30T00:44:15.099Z,55.95
2022-07-30T00:49:17.989Z,56.53
2022-07-30T00:54:21.541Z,57.41
2022-07-30T00:59:27.721Z,58.05
2022-07-30T01:04:31.143Z,57.95
2022-07-30T01:09:33.947Z,57.92
2022-07-30T01:14:38.218Z,58.15
2022-07-30T01:19:55.297Z,58.92
2022-07-30T01:25:11.103Z,59.14
2022-07-30T01:30:20.306Z,59.64
2022-07-30T01:35:26.167Z,60.24
2022-07-30T01:40:29.729Z,60.17
2022-07-30T01:45:41.373Z,60.52
2022-07-30T01:50:49.283Z,60.64
2022-07-30T01:55:55.176Z,60.78
2022-07-30T02:00:58.962Z,60.97
2022-07-30T02:06:23.248Z,60.76
2022-07-30T02:11:44.901Z,61.03
2022-07-30T02:16:54.400Z,60.98
2022-07-30T02:22:12.760Z,61.21
2022-07-30T02:27:30.627Z,61.26
2022-07-30T02:32:41.005Z,61.45
2022-07-30T02:37:48.433Z,61.33
2022-07-30T02:42:54.073Z,61.07
2022-07-30T02:48:02.503Z,61.59
2022-07-30T02:53:10.975Z,61.57
2022-07-30T02:58:23.373Z,62.02
2022-07-30T03:03:29.452Z,62.22
2022-07-30T03:08:34.386Z,62.40
2022-07-30T03:13:37.261Z,62.56
2022-07-30T03:18:43.125Z,63.32
2022-07-30T03:23:47.974Z,63.42
2022-07-30T03:28:51.345Z,63.91
2022-07-30T03:33:54.637Z,64.33
2022-07-30T03:38:57.811Z,64.57
2022-07-30T03:44:01.563Z,64.98
2022-07-30T03:49:06.147Z,66.23
2022-07-30T03:54:13.819Z,66.45
2022-07-30T03:59:17.112Z,66.87
2022-07-30T04:04:20.124Z,66.69
2022-07-30T04:09:23.578Z,66.58
2022-07-30T04:14:26.341Z,67.27
2022-07-30T04:19:40.132Z,66.93
2022-07-30T04:24:45.295Z,67.39
2022-07-30T04:29:48.349Z,67.65
2022-07-30T04:34:54.391Z,67.43
2022-07-30T04:40:01.078Z,67.34
2022-07-30T04:45:04.709Z,67.42
2022-07-30T04:50:08.996Z,67.21
2022-07-30T04:55:14.309Z,66.92
2022-07-30T05:00:18.113Z,67.04
2022-07-30T05:05:21.882Z,66.87
2022-07-30T05:10:25.634Z,67.15
2022-07-30T05:15:35.966Z,67.26
2022-07-30T05:20:40.684Z,66.36
2022-07-30T05:25:43.924Z,66.21
2022-07-30T05:30:46.683Z,65.83
2022-07-30T05:35:51.267Z,65.74
2022-07-30T05:40:54.150Z,65.19
2022-07-30T05:45:57.053Z,64.79
2022-07-30T05:50:59.784Z,64.32
2022-07-30T05:56:03.138Z,64.77
2022-07-30T06:01:06.057Z,64.34
2022-07-30T06:06:09.001Z,64.35
2022-07-30T06:11:11.892Z,64.22
2022-07-30T06:16:15.203Z,63.92
2022-07-30T06:21:18.074Z,63.49
2022-07-30T06:26:21.061Z,63.35
2022-07-30T06:31:24.342Z,63.14
2022-07-30T06:36:27.176Z,62.77
2022-07-30T06:41:30.050Z,62.67
2022-07-30T06:46:32.936Z,61.96
2022-07-30T06:51:35.709Z,61.57
2022-07-30T06:56:38.515Z,61.65
2022-07-30T07:01:41.561Z,61.33
2022-07-30T07:06:45.161Z,61.01
2022-07-30T07:11:48.125Z,60.64
2022-07-30T07:16:51.277Z,60.80
2022-07-30T07:21:54.196Z,60.04
2022-07-30T07:26:57.130Z,59.71
2022-07-30T07:32:06.003Z,59.67
2022-07-30T07:37:11.022Z,60.39
2022-07-30T07:42:13.934Z,60.31
2022-07-30T07:47:17.040Z,60.75
2022-07-30T07:52:19.997Z,59.95
2022-07-30T07:57:22.929Z,60.22
2022-07-30T08:02:26.617Z,60.17
2022-07-30T08:07:30.797Z,60.97
2022-07-30T08:12:34.311Z,62.83
2022-07-30T08:17:47.438Z,65.82
2022-07-30T08:22:50.838Z,68.34
2022-07-30T08:27:53.917Z,69.72
2022-07-30T08:32:59.257Z,71.11
2022-07-30T08:38:02.051Z,72.37
2022-07-30T08:43:07.431Z,73.04
2022-07-30T08:48:16.462Z,73.62
2022-07-30T08:53:19.922Z,73.42
2022-07-30T08:58:35.210Z,74.30
2022-07-30T09:03:44.059Z,75.41
2022-07-30T09:08:48.101Z,74.29
2022-07-30T09:13:51.122Z,74.31
2022-07-30T09:18:54.940Z,74.61
2022-07-30T09:24:05.868Z,74.79
2022-07-30T09:29:22.183Z,74.54
2022-07-30T09:34:28.442Z,74.60
2022-07-30T09:39:42.499Z,74.08
2022-07-30T09:45:16.183Z,73.88
2022-07-30T09:50:30.024Z,74.43
2022-07-30T09:55:36.234Z,75.08
2022-07-30T10:00:45.393Z,75.84
2022-07-30T10:06:00.401Z,76.77
2022-07-30T10:11:04.984Z,78.25
2022-07-30T10:16:11.824Z,79.72
2022-07-30T10:21:16.811Z,81.52
2022-07-30T10:26:21.153Z,84.10
2022-07-30T10:31:48.519Z,86.83
2022-07-30T10:37:04.637Z,88.81
2022-07-30T10:42:46.327Z,90.33
2022-07-30T10:47:52.346Z,91.40
2022-07-30T10:53:01.299Z,92.46
2022-07-30T10:58:15.548Z,93.64
2022-07-30T11:03:41.513Z,94.62
2022-07-30T11:08:50.562Z,95.67
2022-07-30T11:13:59.033Z,96.41
2022-07-30T11:19:53.353Z,97.33
2022-07-30T11:24:49.023Z,98.13
2022-07-30T11:29:52.020Z,98.69
2022-07-30T11:35:20.318Z,99.74
2022-07-30T11:40:35.304Z,100.00
2022-07-30T11:45:38.289Z,100.00
2022-07-30T11:50:46.100Z,100.00
2022-07-30T11:56:01.342Z,100.00
2022-07-30T12:01:17.262Z,100.00
2022-07-30T12:06:20.632Z,100.00
2022-07-30T12:11:23.347Z,100.00
2022-07-30T12:16:28.163Z,100.00
2022-07-30T12:21:31.366Z,100.00
2022-07-30T12:26:35.227Z,100.00
2022-07-30T12:31:40.288Z,99.37
2022-07-30T12:36:43.108Z,99.41
2022-07-30T12:41:49.478Z,100.00
2022-07-30T12:46:52.639Z,99.67
2022-07-30T12:52:00.311Z,99.24
2022-07-30T12:57:06.315Z,98.55
2022-07-30T13:02:09.695Z,97.12
2022-07-30T13:07:13.055Z,96.28
2022-07-30T13:12:16.732Z,93.43
2022-07-30T13:17:19.514Z,92.20
2022-07-30T13:22:22.468Z,92.90
2022-07-30T13:27:25.587Z,92.84
2022-07-30T13:32:28.412Z,91.28
2022-07-30T13:37:38.499Z,89.49
2022-07-30T13:42:41.559Z,87.58
2022-07-30T13:47:44.371Z,88.28
2022-07-30T13:52:47.400Z,89.10
2022-07-30T13:57:50.838Z,87.79
2022-07-30T14:02:54.605Z,88.10
2022-07-30T14:07:57.883Z,87.95
2022-07-30T14:13:01.362Z,86.04
2022-07-30T14:18:04.441Z,84.08
2022-07-30T14:23:07.412Z,85.85
2022-07-30T14:28:10.570Z,84.62
2022-07-30T14:33:13.411Z,84.46
2022-07-30T14:38:16.510Z,82.08
2022-07-30T14:43:19.741Z,80.36
2022-07-30T14:48:22.539Z,80.84
2022-07-30T14:53:25.381Z,78.77
2022-07-30T14:58:28.372Z,77.61
2022-07-30T15:03:31.139Z,76.92
2022-07-30T15:08:33.897Z,76.75
2022-07-30T15:13:38.643Z,74.83
2022-07-30T15:18:52.654Z,75.13
2022-07-30T15:23:55.509Z,72.93
2022-07-30T15:28:58.512Z,74.28
2022-07-30T15:34:01.294Z,74.20
2022-07-30T15:39:04.126Z,73.77
2022-07-30T15:44:06.924Z,73.47
2022-07-30T15:49:10.191Z,72.76
2022-07-30T15:54:14.097Z,72.98
2022-07-30T15:59:17.270Z,72.92
2022-07-30T16:04:20.228Z,72.24
2022-07-30T16:09:24.143Z,72.51
2022-07-30T16:14:27.495Z,72.39
2022-07-30T16:19:30.295Z,72.80
2022-07-30T16:24:33.494Z,74.00
2022-07-30T16:29:36.335Z,71.92
2022-07-30T16:34:39.519Z,68.53
2022-07-30T16:39:42.418Z,69.17
2022-07-30T16:44:45.326Z,67.61
2022-07-30T16:49:48.194Z,67.00
2022-07-30T16:54:50.984Z,67.32
2022-07-30T16:59:53.863Z,66.36
2022-07-30T17:04:56.625Z,67.67
2022-07-30T17:09:59.449Z,69.05
2022-07-30T17:15:02.839Z,69.82
2022-07-30T17:20:06.799Z,71.63
2022-07-30T17:25:10.384Z,72.83
2022-07-30T17:30:13.478Z,74.86
2022-07-30T17:35:16.609Z,74.59
2022-07-30T17:40:30.783Z,76.92
2022-07-30T17:45:36.954Z,76.26
2022-07-30T17:50:40.086Z,76.41
2022-07-30T17:55:57.305Z,76.41
2022-07-30T18:01:02.895Z,76.63
2022-07-30T18:06:06.206Z,76.40
2022-07-30T18:11:13.516Z,76.00
2022-07-30T18:16:16.709Z,77.13
2022-07-30T18:21:19.473Z,76.39
2022-07-30T18:26:22.706Z,76.59
2022-07-30T18:31:25.485Z,76.50
2022-07-30T18:36:28.746Z,77.23
2022-07-30T18:41:31.645Z,77.12
2022-07-30T18:46:34.962Z,77.16
2022-07-30T18:51:38.256Z,74.75
2022-07-30T18:56:41.086Z,74.85
2022-07-30T19:01:44.219Z,73.52
2022-07-30T19:06:47.498Z,73.64
2022-07-30T19:11:50.374Z,74.31
2022-07-30T19:16:53.816Z,74.17
2022-07-30T19:22:02.381Z,73.67
2022-07-30T19:27:09.835Z,73.50
2022-07-30T19:32:15.181Z,73.38
2022-07-30T19:37:19.363Z,75.00
2022-07-30T19:42:22.249Z,75.63
2022-07-30T19:47:26.264Z,75.02
2022-07-30T19:52:29.347Z,75.06
2022-07-30T19:57:53.014Z,73.93
2022-07-30T20:02:55.346Z,73.64
2022-07-30T20:08:00.686Z,73.52
2022-07-30T20:13:03.526Z,74.35
2022-07-30T20:18:10.353Z,75.12
2022-07-30T20:23:13.221Z,74.56
2022-07-30T20:28:16.239Z,75.20
2022-07-30T20:33:22.567Z,74.67
2022-07-30T20:38:40.399Z,74.81
2022-07-30T20:43:46.172Z,75.42
2022-07-30T20:48:55.836Z,76.22
2022-07-30T20:53:59.301Z,76.37
2022-07-30T20:59:02.405Z,77.13
2022-07-30T21:04:05.866Z,77.12
2022-07-30T21:09:14.174Z,77.50
2022-07-30T21:14:17.643Z,78.02
2022-07-30T21:19:21.218Z,78.43
2022-07-30T21:24:25.571Z,78.67
2022-07-30T21:29:29.262Z,79.29
2022-07-30T21:39:55.464Z,80.04
2022-07-30T21:44:59.502Z,80.60
2022-07-30T21:50:02.525Z,81.34
2022-07-30T21:55:06.258Z,81.68
2022-07-30T22:00:21.969Z,82.32
2022-07-30T22:05:38.861Z,82.76
2022-07-30T22:10:45.028Z,83.08
2022-07-30T22:15:50.054Z,83.67
2022-07-30T22:20:54.197Z,84.13
2022-07-30T22:26:00.172Z,84.70
2022-07-30T22:31:05.642Z,84.88
2022-07-30T22:36:09.853Z,85.24
2022-07-30T22:41:14.608Z,85.51
2022-07-30T22:46:30.213Z,85.44
2022-07-30T22:51:59.306Z,85.46
2022-07-30T22:56:56.910Z,84.67
2022-07-30T23:02:06.931Z,83.85
2022-07-30T23:07:19.085Z,82.97
2022-07-30T23:12:22.329Z,82.57
2022-07-30T23:12:31.193Z,79.94
2022-07-30T23:17:25.815Z,82.54
2022-07-30T23:22:29.728Z,82.52
2022-07-30T23:27:32.712Z,82.51
2022-07-30T23:32:36.758Z,82.32
2022-07-30T23:37:48.387Z,82.66
2022-07-30T23:42:52.606Z,82.58
2022-07-30T23:48:02.464Z,82.39
2022-07-30T23:53:06.121Z,82.59
2022-07-30T23:58:09.612Z,82.70
